KGCD

Grant Co Regional / Ogilvie Field Airport

John Day, Oregon, USA
METAR KGCD 260355Z AUTO 00000KT 10SM SCT024 SCT075 BKN120 12/11 A2996 RMK AO2 P0003 T01160106
Observed Flight Rules
May-26 @ 03:55 UTC (23 minutes ago) Visual Flight Rules
Visibility Clouds
10 miles
  • Scattered at 2,400' AGL
  • Scattered at 7,500' AGL
  • Broken at 12,000' AGL
Temperatures Readings Precipitation
Current 12°C / 54°F
Dewpoint 11°C / 52°F
Humidity 94%
Altimeter 29.96" Hg
Pressure 1015 hPa
Elevation 1127
Current Rain 0.03
METAR KGCD 260355Z AUTO 00000KT 10SM SCT024 SCT075 BKN120 12/11 A2996 RMK AO2 P0003 T01160106
Observed Flight Rules
May-26 @ 03:55 UTC
(23 minutes ago)
VFR
Clouds
  • Scattered at 2,400' AGL
  • Scattered at 7,500' AGL
  • Broken at 12,000' AGL
Temperature Dewpoint
12°C / 54°F 11°C / 52°F
Humidity Altimeter Pressure
94% 29.96" Hg 1015 hPa
Current Rain
0.03